地図

経路データ

SID SEASON NUMBER BASIN SUBBASIN NAME ISO_TIME NATURE LAT LON WMO_WIND WMO_PRES WMO_AGENCY TRACK_TYPE DIST2LAND LANDFALL IFLAG USA_AGENCY USA_ATCF_ID USA_LAT USA_LON USA_RECORD USA_STATUS USA_WIND USA_PRES USA_SSHS USA_R34_NE USA_R34_SE USA_R34_SW USA_R34_NW USA_R50_NE USA_R50_SE USA_R50_SW USA_R50_NW USA_R64_NE USA_R64_SE USA_R64_SW USA_R64_NW USA_POCI USA_ROCI USA_RMW USA_EYE TOKYO_LAT TOKYO_LON TOKYO_GRADE TOKYO_WIND TOKYO_PRES TOKYO_R50_DIR TOKYO_R50_LONG TOKYO_R50_SHORT TOKYO_R30_DIR TOKYO_R30_LONG TOKYO_R30_SHORT TOKYO_LAND CMA_LAT CMA_LON CMA_CAT CMA_WIND CMA_PRES HKO_LAT HKO_LON HKO_CAT HKO_WIND HKO_PRES NEWDELHI_LAT NEWDELHI_LON NEWDELHI_GRADE NEWDELHI_WIND NEWDELHI_PRES NEWDELHI_CI NEWDELHI_DP NEWDELHI_POCI REUNION_LAT REUNION_LON REUNION_TYPE REUNION_WIND REUNION_PRES REUNION_TNUM REUNION_CI REUNION_RMW REUNION_R34_NE REUNION_R34_SE REUNION_R34_SW REUNION_R34_NW REUNION_R50_NE REUNION_R50_SE REUNION_R50_SW REUNION_R50_NW REUNION_R64_NE REUNION_R64_SE REUNION_R64_SW REUNION_R64_NW BOM_LAT BOM_LON BOM_TYPE BOM_WIND BOM_PRES BOM_TNUM BOM_CI BOM_RMW BOM_R34_NE BOM_R34_SE BOM_R34_SW BOM_R34_NW BOM_R50_NE BOM_R50_SE BOM_R50_SW BOM_R50_NW BOM_R64_NE BOM_R64_SE BOM_R64_SW BOM_R64_NW BOM_ROCI BOM_POCI BOM_EYE BOM_POS_METHOD BOM_PRES_METHOD NADI_LAT NADI_LON NADI_CAT NADI_WIND NADI_PRES WELLINGTON_LAT WELLINGTON_LON WELLINGTON_WIND WELLINGTON_PRES DS824_LAT DS824_LON DS824_STAGE DS824_WIND DS824_PRES TD9636_LAT TD9636_LON TD9636_STAGE TD9636_WIND TD9636_PRES TD9635_LAT TD9635_LON TD9635_WIND TD9635_PRES TD9635_ROCI NEUMANN_LAT NEUMANN_LON NEUMANN_CLASS NEUMANN_WIND NEUMANN_PRES MLC_LAT MLC_LON MLC_CLASS MLC_WIND MLC_PRES USA_GUST BOM_GUST BOM_GUST_PER REUNION_GUST REUNION_GUST_PER USA_SEAHGT USA_SEARAD_NE USA_SEARAD_SE USA_SEARAD_SW USA_SEARAD_NW STORM_SPEED STORM_DIR
1916181N13281 1916 31 NA CS NOT_NAMED 1916-06-28 12:00:00 TS 12.5000 -79.5000 25 hurdat_atl main 336 336 O_____________ hurdat_atl AL021916 12.5000 -79.5000 TD 25 -1 3 270
1916181N13281 1916 31 NA CS NOT_NAMED 1916-06-28 15:00:00 TS 12.5000 -79.6525 main 336 336 P_____________ AL021916 12.5000 -79.6525 TD 25 -1 3 270
1916181N13281 1916 31 NA CS NOT_NAMED 1916-06-28 18:00:00 TS 12.5000 -79.8000 25 hurdat_atl main 336 336 O_____________ hurdat_atl AL021916 12.5000 -79.8000 TD 25 -1 3 270
1916181N13281 1916 31 NA CS NOT_NAMED 1916-06-28 21:00:00 TS 12.5000 -79.9425 main 336 336 P_____________ AL021916 12.5000 -79.9425 TD 25 -1 3 270
1916181N13281 1916 31 NA CS NOT_NAMED 1916-06-29 00:00:00 TS 12.5000 -80.1000 25 hurdat_atl main 338 338 O_____________ hurdat_atl AL021916 12.5000 -80.1000 TD 25 -1 3 267
1916181N13281 1916 31 NA CS NOT_NAMED 1916-06-29 03:00:00 TS 12.4850 -80.2925 main 342 325 P_____________ AL021916 12.4850 -80.2925 TD 25 -1 4 270
1916181N13281 1916 31 NA CS NOT_NAMED 1916-06-29 06:00:00 TS 12.5000 -80.5000 25 hurdat_atl main 325 304 O_____________ hurdat_atl AL021916 12.5000 -80.5000 TD 25 -1 4 283
1916181N13281 1916 31 NA CS NOT_NAMED 1916-06-29 09:00:00 TS 12.5775 -80.7000 main 304 282 P_____________ AL021916 12.5775 -80.7000 TD 25 -1 4 297
1916181N13281 1916 31 NA CS NOT_NAMED 1916-06-29 12:00:00 TS 12.7000 -80.9000 25 hurdat_atl main 282 260 O_____________ hurdat_atl AL021916 12.7000 -80.9000 TD 25 -1 5 303
1916181N13281 1916 31 NA CS NOT_NAMED 1916-06-29 15:00:00 TS 12.8275 -81.1000 main 260 238 P_____________ AL021916 12.8275 -81.1000 TD 25 -1 5 308
1916181N13281 1916 31 NA CS NOT_NAMED 1916-06-29 18:00:00 TS 13.0000 -81.3000 25 hurdat_atl main 238 216 O_____________ hurdat_atl AL021916 13.0000 -81.3000 TD 25 -1 6 316
1916181N13281 1916 31 NA CS NOT_NAMED 1916-06-29 21:00:00 TS 13.2350 -81.5000 main 216 185 P_____________ AL021916 13.2350 -81.5000 TD 27 -1 6 322
1916181N13281 1916 31 NA CS NOT_NAMED 1916-06-30 00:00:00 TS 13.5000 -81.7000 30 hurdat_atl main 185 155 O_____________ hurdat_atl AL021916 13.5000 -81.7000 TD 30 -1 6 323
1916181N13281 1916 31 NA CS NOT_NAMED 1916-06-30 03:00:00 TS 13.7500 -81.9000 main 155 123 P_____________ AL021916 13.7500 -81.9000 TD 30 -1 6 322
1916181N13281 1916 31 NA CS NOT_NAMED 1916-06-30 06:00:00 TS 14.0000 -82.1000 30 hurdat_atl main 123 97 O_____________ hurdat_atl AL021916 14.0000 -82.1000 TD 30 -1 6 322
1916181N13281 1916 31 NA CS NOT_NAMED 1916-06-30 09:00:00 TS 14.2500 -82.3075 main 97 76 P_____________ AL021916 14.2500 -82.3075 TD 30 -1 6 322
1916181N13281 1916 31 NA CS NOT_NAMED 1916-06-30 12:00:00 TS 14.5000 -82.5000 30 hurdat_atl main 78 54 O_____________ hurdat_atl AL021916 14.5000 -82.5000 TD 30 -1 6 325
1916181N13281 1916 31 NA CS NOT_NAMED 1916-06-30 15:00:00 TS 14.7500 -82.6650 main 54 32 P_____________ AL021916 14.7500 -82.6650 TD 30 -1 6 330
1916181N13281 1916 31 NA CS NOT_NAMED 1916-06-30 18:00:00 TS 15.0000 -82.8000 30 hurdat_atl main 32 24 O_____________ hurdat_atl AL021916 15.0000 -82.8000 TD 30 -1 6 334
1916181N13281 1916 31 NA CS NOT_NAMED 1916-06-30 21:00:00 TS 15.2500 -82.9150 main 31 31 P_____________ AL021916 15.2500 -82.9150 TD 30 -1 5 339
1916181N13281 1916 31 NA CS NOT_NAMED 1916-07-01 00:00:00 TS 15.5000 -83.0000 30 hurdat_atl main 48 48 O_____________ hurdat_atl AL021916 15.5000 -83.0000 TD 30 -1 5 345
1916181N13281 1916 31 NA CS NOT_NAMED 1916-07-01 03:00:00 TS 15.7500 -83.0501 main 55 55 P_____________ AL021916 15.7500 -83.0501 TD 30 -1 5 349
1916181N13281 1916 31 NA CS NOT_NAMED 1916-07-01 06:00:00 TS 16.0000 -83.1000 30 hurdat_atl main 84 84 O_____________ hurdat_atl AL021916 16.0000 -83.1000 TD 30 -1 5 346
1916181N13281 1916 31 NA CS NOT_NAMED 1916-07-01 09:00:00 TS 16.2575 -83.1775 main 113 113 P_____________ AL021916 16.2575 -83.1775 TD 30 -1 5 339
1916181N13281 1916 31 NA CS NOT_NAMED 1916-07-01 12:00:00 TS 16.5000 -83.3000 30 hurdat_atl main 125 125 O_____________ hurdat_atl AL021916 16.5000 -83.3000 TD 30 -1 5 327
1916181N13281 1916 31 NA CS NOT_NAMED 1916-07-01 15:00:00 TS 16.7150 -83.4850 main 132 132 P_____________ AL021916 16.7150 -83.4850 TD 30 -1 6 316
1916181N13281 1916 31 NA CS NOT_NAMED 1916-07-01 18:00:00 TS 16.9000 -83.7000 30 hurdat_atl main 138 134 O_____________ hurdat_atl AL021916 16.9000 -83.7000 TD 30 -1 5 311
1916181N13281 1916 31 NA CS NOT_NAMED 1916-07-01 21:00:00 TS 17.0500 -83.8926 main 140 140 P_____________ AL021916 17.0500 -83.8926 TD 32 -1 5 308
1916181N13281 1916 31 NA CS NOT_NAMED 1916-07-02 00:00:00 TS 17.2000 -84.1000 35 hurdat_atl main 158 154 O_____________ hurdat_atl AL021916 17.2000 -84.1000 TS 35 0 6 308
1916181N13281 1916 31 NA CS NOT_NAMED 1916-07-02 03:00:00 TS 17.3925 -84.3500 main 173 170 P_____________ AL021916 17.3925 -84.3500 TS 35 0 6 310
1916181N13281 1916 31 NA CS NOT_NAMED 1916-07-02 06:00:00 TS 17.6000 -84.6000 35 hurdat_atl main 190 190 O_____________ hurdat_atl AL021916 17.6000 -84.6000 TS 35 0 6 312
1916181N13281 1916 31 NA CS NOT_NAMED 1916-07-02 09:00:00 TS 17.7925 -84.8225 main 212 212 P_____________ AL021916 17.7925 -84.8225 TS 37 0 6 316
1916181N13281 1916 31 NA CS NOT_NAMED 1916-07-02 12:00:00 TS 18.0000 -85.0000 40 hurdat_atl main 235 235 O_____________ hurdat_atl AL021916 18.0000 -85.0000 TS 40 0 5 328
1916181N13281 1916 31 NA CS NOT_NAMED 1916-07-02 15:00:00 TS 18.2500 -85.1225 main 257 254 P_____________ AL021916 18.2500 -85.1225 TS 42 0 5 339
1916181N13281 1916 31 NA CS NOT_NAMED 1916-07-02 18:00:00 TS 18.5000 -85.2000 45 hurdat_atl main 254 247 O_____________ hurdat_atl AL021916 18.5000 -85.2000 TS 45 0 5 346
1916181N13281 1916 31 NA CS NOT_NAMED 1916-07-02 21:00:00 TS 18.7000 -85.2501 main 238 230 P_____________ AL021916 18.7000 -85.2501 TS 47 0 4 347
1916181N13281 1916 31 NA CS NOT_NAMED 1916-07-03 00:00:00 TS 18.9000 -85.3000 50 hurdat_atl main 230 214 O_____________ hurdat_atl AL021916 18.9000 -85.3000 TS 50 0 5 342
1916181N13281 1916 31 NA CS NOT_NAMED 1916-07-03 03:00:00 TS 19.1350 -85.3925 main 214 199 P_____________ AL021916 19.1350 -85.3925 TS 52 0 5 339
1916181N13281 1916 31 NA CS NOT_NAMED 1916-07-03 06:00:00 TS 19.4000 -85.5000 55 hurdat_atl main 199 183 O_____________ hurdat_atl AL021916 19.4000 -85.5000 TS 55 0 6 341
1916181N13281 1916 31 NA CS NOT_NAMED 1916-07-03 09:00:00 TS 19.6850 -85.5926 main 183 153 P_____________ AL021916 19.6850 -85.5926 TS 57 0 6 342
1916181N13281 1916 31 NA CS NOT_NAMED 1916-07-03 12:00:00 TS 20.0000 -85.7000 60 hurdat_atl main 153 127 O_____________ hurdat_atl AL021916 20.0000 -85.7000 TS 60 0 7 341
1916181N13281 1916 31 NA CS NOT_NAMED 1916-07-03 15:00:00 TS 20.3350 -85.8351 main 127 85 P_____________ AL021916 20.3350 -85.8351 TS 62 0 8 338
1916181N13281 1916 31 NA CS NOT_NAMED 1916-07-03 18:00:00 TS 20.7000 -86.0000 65 hurdat_atl main 85 51 O_____________ hurdat_atl AL021916 20.7000 -86.0000 HU 65 1 8 336
1916181N13281 1916 31 NA CS NOT_NAMED 1916-07-03 21:00:00 TS 21.0850 -86.2000 main 51 42 P_____________ AL021916 21.0850 -86.2000 HU 67 1 9 335
1916181N13281 1916 31 NA CS NOT_NAMED 1916-07-04 00:00:00 TS 21.5000 -86.4000 70 hurdat_atl main 47 45 O_____________ hurdat_atl AL021916 21.5000 -86.4000 HU 70 1 9 338
1916181N13281 1916 31 NA GM NOT_NAMED 1916-07-04 03:00:00 TS 21.9275 -86.5577 main 60 60 P_____________ AL021916 21.9275 -86.5577 HU 72 1 9 343
1916181N13281 1916 31 NA GM NOT_NAMED 1916-07-04 06:00:00 TS 22.4000 -86.7000 75 hurdat_atl main 105 105 O_____________ hurdat_atl AL021916 22.4000 -86.7000 HU 75 1 10 344
1916181N13281 1916 31 NA GM NOT_NAMED 1916-07-04 09:00:00 TS 22.9200 -86.8575 main 156 156 P_____________ AL021916 22.9200 -86.8575 HU 77 1 11 346
1916181N13281 1916 31 NA GM NOT_NAMED 1916-07-04 12:00:00 TS 23.5000 -87.0000 80 hurdat_atl main 223 223 O_____________ hurdat_atl AL021916 23.5000 -87.0000 HU 80 1 12 349
1916181N13281 1916 31 NA GM NOT_NAMED 1916-07-04 15:00:00 TS 24.1200 -87.1151 main 290 290 P_____________ AL021916 24.1200 -87.1151 HU 82 1 13 352
1916181N13281 1916 31 NA GM NOT_NAMED 1916-07-04 18:00:00 TS 24.8000 -87.2000 85 hurdat_atl main 369 369 O_____________ hurdat_atl AL021916 24.8000 -87.2000 HU 85 2 14 355
1916181N13281 1916 31 NA GM NOT_NAMED 1916-07-04 21:00:00 TS 25.5500 -87.2503 main 429 349 P_____________ AL021916 25.5500 -87.2503 HU 87 2 15 357
1916181N13281 1916 31 NA GM NOT_NAMED 1916-07-05 00:00:00 TS 26.3000 -87.3000 90 hurdat_atl main 349 287 O_____________ hurdat_atl AL021916 26.3000 -87.3000 HU 90 2 14 355
1916181N13281 1916 31 NA GM NOT_NAMED 1916-07-05 03:00:00 TS 26.9725 -87.3925 main 278 221 P_____________ AL021916 26.9725 -87.3925 HU 92 2 13 352
1916181N13281 1916 31 NA GM NOT_NAMED 1916-07-05 06:00:00 TS 27.6000 -87.5000 95 hurdat_atl main 221 169 O_____________ hurdat_atl AL021916 27.6000 -87.5000 HU 95 2 13 352
1916181N13281 1916 31 NA GM NOT_NAMED 1916-07-05 09:00:00 TS 28.2150 -87.5927 main 169 130 P_____________ AL021916 28.2150 -87.5927 HU 97 3 12 352
1916181N13281 1916 31 NA GM NOT_NAMED 1916-07-05 12:00:00 TS 28.8000 -87.7000 100 hurdat_atl main 130 102 O_____________ hurdat_atl AL021916 28.8000 -87.7000 HU 100 3 12 351
1916181N13281 1916 31 NA GM NOT_NAMED 1916-07-05 15:00:00 TS 29.3669 -87.7926 main 91 33 P_____________ AL021916 29.3669 -87.7926 HU 102 3 11 347
1916181N13281 1916 31 NA GM NOT_NAMED 1916-07-05 18:00:00 TS 29.9000 -88.0000 105 950 hurdat_atl main 33 0 O_____________ hurdat_atl AL021916 29.9000 -88.0000 HU 105 950 3 12 333
1916181N13281 1916 31 NA GM NOT_NAMED 1916-07-05 21:00:00 TS 30.4000 -88.4000 105 950 hurdat_atl main 0 0 O_____________ hurdat_atl AL021916 30.4000 -88.4000 L HU 105 950 3 10 330
1916181N13281 1916 31 NA NA NOT_NAMED 1916-07-06 00:00:00 TS 30.8000 -88.6000 80 hurdat_atl main 0 0 O_____________ hurdat_atl AL021916 30.8000 -88.6000 HU 80 1 10 330
1916181N13281 1916 31 NA NA NOT_NAMED 1916-07-06 03:00:00 TS 31.2536 -88.9722 main 0 0 P_____________ AL021916 31.2536 -88.9722 HU 67 1 11 323
1916181N13281 1916 31 NA NA NOT_NAMED 1916-07-06 06:00:00 TS 31.7000 -89.4000 55 hurdat_atl main 0 0 O_____________ hurdat_atl AL021916 31.7000 -89.4000 TS 55 0 11 321
1916181N13281 1916 31 NA NA NOT_NAMED 1916-07-06 09:00:00 TS 32.0875 -89.7526 main 0 0 P_____________ AL021916 32.0875 -89.7526 TS 50 0 9 324
1916181N13281 1916 31 NA NA NOT_NAMED 1916-07-06 12:00:00 TS 32.4000 -90.0000 45 994 hurdat_atl main 0 0 O_____________ hurdat_atl AL021916 32.4000 -90.0000 TS 45 994 0 6 332
1916181N13281 1916 31 NA NA NOT_NAMED 1916-07-06 15:00:00 TS 32.6299 -90.0879 main 0 0 P_____________ AL021916 32.6299 -90.0879 TS 42 0 4 348
1916181N13281 1916 31 NA NA NOT_NAMED 1916-07-06 18:00:00 TS 32.8000 -90.1000 40 hurdat_atl main 0 0 O_____________ hurdat_atl AL021916 32.8000 -90.1000 TS 40 0 3 349
1916181N13281 1916 31 NA NA NOT_NAMED 1916-07-06 21:00:00 TS 32.9575 -90.1575 main 0 0 P_____________ AL021916 32.9575 -90.1575 TS 40 0 3 346
1916181N13281 1916 31 NA NA NOT_NAMED 1916-07-07 00:00:00 TS 33.1000 -90.2000 40 hurdat_atl main 0 0 O_____________ hurdat_atl AL021916 33.1000 -90.2000 TS 40 0 3 351
1916181N13281 1916 31 NA NA NOT_NAMED 1916-07-07 03:00:00 TS 33.2500 -90.2150 main 0 0 P_____________ AL021916 33.2500 -90.2150 TS 40 0 3 0
1916181N13281 1916 31 NA NA NOT_NAMED 1916-07-07 06:00:00 TS 33.4000 -90.2000 40 hurdat_atl main 0 0 O_____________ hurdat_atl AL021916 33.4000 -90.2000 TS 40 0 3 0
1916181N13281 1916 31 NA NA NOT_NAMED 1916-07-07 09:00:00 TS 33.5648 -90.2024 main 0 0 P_____________ AL021916 33.5648 -90.2024 TS 40 0 3 14
1916181N13281 1916 31 NA NA NOT_NAMED 1916-07-07 12:00:00 TS 33.7000 -90.1000 40 hurdat_atl main 0 0 O_____________ hurdat_atl AL021916 33.7000 -90.1000 TS 40 0 4 57
1916181N13281 1916 31 NA NA NOT_NAMED 1916-07-07 15:00:00 TS 33.7800 -89.8102 main 0 0 P_____________ AL021916 33.7800 -89.8102 TS 40 0 6 80
1916181N13281 1916 31 NA NA NOT_NAMED 1916-07-07 18:00:00 TS 33.8000 -89.4000 40 hurdat_atl main 0 0 O_____________ hurdat_atl AL021916 33.8000 -89.4000 TS 40 0 7 91
1916181N13281 1916 31 NA NA NOT_NAMED 1916-07-07 21:00:00 TS 33.7725 -88.9649 main 0 0 P_____________ AL021916 33.7725 -88.9649 TS 40 0 8 98
1916181N13281 1916 31 NA NA NOT_NAMED 1916-07-08 00:00:00 TS 33.7000 -88.5000 40 hurdat_atl main 0 0 O_____________ hurdat_atl AL021916 33.7000 -88.5000 TS 40 0 8 102
1916181N13281 1916 31 NA NA NOT_NAMED 1916-07-08 03:00:00 TS 33.6150 -88.0350 main 0 0 P_____________ AL021916 33.6150 -88.0350 TS 40 0 8 105
1916181N13281 1916 31 NA NA NOT_NAMED 1916-07-08 06:00:00 TS 33.5000 -87.6000 40 hurdat_atl main 0 0 O_____________ hurdat_atl AL021916 33.5000 -87.6000 TS 40 0 7 112
1916181N13281 1916 31 NA NA NOT_NAMED 1916-07-08 09:00:00 TS 33.3350 -87.2048 main 0 0 P_____________ AL021916 33.3350 -87.2048 TS 37 0 7 117
1916181N13281 1916 31 NA NA NOT_NAMED 1916-07-08 12:00:00 TS 33.2000 -86.9000 35 hurdat_atl main 0 0 O_____________ hurdat_atl AL021916 33.2000 -86.9000 TS 35 0 4 113
1916181N13281 1916 31 NA NA NOT_NAMED 1916-07-08 15:00:00 TS 33.1623 -86.7127 main 0 0 P_____________ AL021916 33.1623 -86.7127 TS 35 0 3 90
1916181N13281 1916 31 NA NA NOT_NAMED 1916-07-08 18:00:00 TS 33.2000 -86.6000 35 hurdat_atl main 0 0 O_____________ hurdat_atl AL021916 33.2000 -86.6000 TS 35 0 2 58
1916181N13281 1916 31 NA NA NOT_NAMED 1916-07-08 21:00:00 TS 33.2775 -86.4925 main 0 0 P_____________ AL021916 33.2775 -86.4925 TS 32 -1 3 40
1916181N13281 1916 31 NA NA NOT_NAMED 1916-07-09 00:00:00 TS 33.4000 -86.4000 30 hurdat_atl main 0 0 O_____________ hurdat_atl AL021916 33.4000 -86.4000 TD 30 -1 3 31
1916181N13281 1916 31 NA NA NOT_NAMED 1916-07-09 03:00:00 TS 33.5425 -86.3000 main 0 0 P_____________ AL021916 33.5425 -86.3000 TD 30 -1 3 29
1916181N13281 1916 31 NA NA NOT_NAMED 1916-07-09 06:00:00 TS 33.7000 -86.2000 30 hurdat_atl main 0 0 O_____________ hurdat_atl AL021916 33.7000 -86.2000 TD 30 -1 4 29
1916181N13281 1916 31 NA NA NOT_NAMED 1916-07-09 09:00:00 TS 33.8500 -86.0925 main 0 0 P_____________ AL021916 33.8500 -86.0925 TD 27 -1 3 29
1916181N13281 1916 31 NA NA NOT_NAMED 1916-07-09 12:00:00 TS 34.0000 -86.0000 25 hurdat_atl main 0 0 O_____________ hurdat_atl AL021916 34.0000 -86.0000 TD 25 -1 3 22
1916181N13281 1916 31 NA NA NOT_NAMED 1916-07-09 15:00:00 TS 34.1500 -85.9424 main 0 0 P_____________ AL021916 34.1500 -85.9424 TD 25 -1 3 14
1916181N13281 1916 31 NA NA NOT_NAMED 1916-07-09 18:00:00 TS 34.3000 -85.9000 25 hurdat_atl main 0 0 O_____________ hurdat_atl AL021916 34.3000 -85.9000 TD 25 -1 3 14
1916181N13281 1916 31 NA NA NOT_NAMED 1916-07-09 21:00:00 TS 34.4575 -85.8500 main 0 0 P_____________ AL021916 34.4575 -85.8500 TD 22 -1 3 14
1916181N13281 1916 31 NA NA NOT_NAMED 1916-07-10 00:00:00 TS 34.6000 -85.8000 20 hurdat_atl main 0 0 O_____________ hurdat_atl AL021916 34.6000 -85.8000 TD 20 -1 3 18
1916181N13281 1916 31 NA NA NOT_NAMED 1916-07-10 03:00:00 TS 34.7075 -85.7500 main 0 0 P_____________ AL021916 34.7075 -85.7500 TD 20 -1 2 23
1916181N13281 1916 31 NA NA NOT_NAMED 1916-07-10 06:00:00 TS 34.8000 -85.7000 20 hurdat_atl main 0 0 O_____________ hurdat_atl AL021916 34.8000 -85.7000 TD 20 -1 2 23
1916181N13281 1916 31 NA NA NOT_NAMED 1916-07-10 09:00:00 TS 34.9000 -85.6500 main 0 0 P_____________ AL021916 34.9000 -85.6500 TD 20 -1 2 23
1916181N13281 1916 31 NA NA NOT_NAMED 1916-07-10 12:00:00 TS 35.0000 -85.6000 20 hurdat_atl main 0 0 O_____________ hurdat_atl AL021916 35.0000 -85.6000 TD 20 -1 2 23
1916181N13281 1916 31 NA NA NOT_NAMED 1916-07-10 15:00:00 TS 35.1000 -85.5500 main 0 0 P_____________ AL021916 35.1000 -85.5500 TD 20 -1 2 23
1916181N13281 1916 31 NA NA NOT_NAMED 1916-07-10 18:00:00 TS 35.2000 -85.5000 20 hurdat_atl main 0 O_____________ hurdat_atl AL021916 35.2000 -85.5000 TD 20 -1 2 17

IBTrACS Databaseについて

本データベースは、米国NOAAが公開する1842年以降の世界の熱帯低気圧のベストトラックデータアーカイブInternational Best Track Archive for Climate Stewardship (IBTrACS)を、ウェブで閲覧しやすい形式に変換したものです。

最終更新日:2021-10-19